createdAt,value
2019-02-27T00:04:48.005Z,7.90
2019-02-27T00:07:21.531Z,7.80
2019-02-27T00:37:25.400Z,7.60
2019-02-27T00:40:17.343Z,7.50
2019-02-27T00:42:54.351Z,7.50
2019-02-27T00:48:32.601Z,7.40
2019-02-27T00:51:25.696Z,7.40
2019-02-27T00:54:01.110Z,7.40
2019-02-27T00:59:57.476Z,7.40
2019-02-27T01:02:32.946Z,7.40
2019-02-27T01:05:40.871Z,7.30
2019-02-27T01:08:28.177Z,7.30
2019-02-27T01:11:20.693Z,7.30
2019-02-27T01:19:46.773Z,7.30
2019-02-27T01:25:18.317Z,7.30
2019-02-27T01:28:30.666Z,7.20
2019-02-27T01:31:18.381Z,7.20
2019-02-27T01:33:54.987Z,7.20
2019-02-27T01:39:31.091Z,7.20
2019-02-27T01:42:12.277Z,7.20
2019-02-27T01:44:55.827Z,7.10
2019-02-27T01:47:30.764Z,7.10
2019-02-27T01:50:33.753Z,7.10
2019-02-27T01:53:17.767Z,7.10
2019-02-27T01:56:00.021Z,7.10
2019-02-27T01:58:30.672Z,7.00
2019-02-27T02:01:24.332Z,7.00
2019-02-27T02:04:02.934Z,7.00
2019-02-27T02:06:52.505Z,7.00
2019-02-27T02:09:25.343Z,7.00
2019-02-27T02:11:58.720Z,7.00
2019-02-27T02:14:47.211Z,7.00
2019-02-27T02:17:44.227Z,7.00
2019-02-27T02:20:49.646Z,7.00
2019-02-27T02:23:54.717Z,7.00
2019-02-27T02:27:07.797Z,6.90
2019-02-27T02:29:56.429Z,6.90
2019-02-27T02:32:45.073Z,6.90
2019-02-27T02:35:51.021Z,6.90
2019-02-27T02:38:53.125Z,6.90
2019-02-27T02:42:02.470Z,6.80
2019-02-27T02:45:05.798Z,6.80
2019-02-27T02:48:01.571Z,6.80
2019-02-27T02:51:11.889Z,6.80
2019-02-27T02:54:21.888Z,6.80
2019-02-27T02:57:20.250Z,6.90
2019-02-27T03:00:22.180Z,6.90
2019-02-27T03:03:10.545Z,6.90
2019-02-27T03:06:07.014Z,6.90
2019-02-27T03:09:10.842Z,7.00
2019-02-27T03:12:06.697Z,7.00
2019-02-27T03:14:57.986Z,7.10
2019-02-27T03:17:53.926Z,7.10
2019-02-27T03:21:04.766Z,7.10
2019-02-27T03:23:55.413Z,7.10
2019-02-27T03:26:53.018Z,7.10
2019-02-27T03:29:58.616Z,7.10
2019-02-27T03:33:07.536Z,7.10
2019-02-27T03:35:53.037Z,7.10
2019-02-27T03:38:42.109Z,7.10
2019-02-27T03:44:55.850Z,7.10
2019-02-27T03:47:51.627Z,7.10
2019-02-27T03:50:41.752Z,7.10
2019-02-27T03:53:32.330Z,7.10
2019-02-27T03:56:16.603Z,7.10
2019-02-27T03:59:23.985Z,7.10
2019-02-27T04:02:07.280Z,7.10
2019-02-27T04:08:32.031Z,7.10
2019-02-27T04:11:23.387Z,7.00
2019-02-27T04:14:03.402Z,7.00
2019-02-27T04:16:30.503Z,6.90
2019-02-27T04:19:07.620Z,6.80
2019-02-27T04:21:39.254Z,6.80
2019-02-27T04:24:10.667Z,6.80
2019-02-27T04:26:48.881Z,6.90
2019-02-27T04:29:41.927Z,6.80
2019-02-27T04:32:35.269Z,6.80
2019-02-27T04:38:02.191Z,6.90
2019-02-27T04:40:44.727Z,6.90
2019-02-27T04:43:24.596Z,6.90
2019-02-27T04:48:53.357Z,6.90
2019-02-27T04:51:33.171Z,6.90
2019-02-27T04:54:15.408Z,6.90
2019-02-27T04:56:57.522Z,6.90
2019-02-27T04:59:31.659Z,6.90
2019-02-27T05:02:12.084Z,6.80
2019-02-27T05:04:49.362Z,6.80
2019-02-27T05:10:22.820Z,6.70
2019-02-27T05:13:03.173Z,6.70
2019-02-27T05:15:40.022Z,6.70
2019-02-27T05:18:15.916Z,6.60
2019-02-27T05:20:52.554Z,6.60
2019-02-27T05:23:27.871Z,6.50
2019-02-27T05:26:10.893Z,6.50
2019-02-27T05:28:45.702Z,6.50
2019-02-27T05:31:19.962Z,6.40
2019-02-27T05:34:04.591Z,6.40
2019-02-27T05:36:58.911Z,6.30
2019-02-27T05:42:21.066Z,6.30
2019-02-27T05:45:20.694Z,6.30
2019-02-27T05:48:03.109Z,6.20
2019-02-27T05:50:45.319Z,6.20
2019-02-27T05:53:16.995Z,6.20
2019-02-27T05:55:47.713Z,6.10
2019-02-27T05:58:17.298Z,6.10
2019-02-27T06:06:20.433Z,6.00
2019-02-27T06:08:55.585Z,6.00
2019-02-27T06:11:33.214Z,5.90
2019-02-27T06:14:11.084Z,5.90
2019-02-27T06:16:45.753Z,5.90
2019-02-27T06:19:17.118Z,5.90
2019-02-27T06:21:46.904Z,5.80
2019-02-27T06:41:57.585Z,5.60
2019-02-27T07:30:42.579Z,5.70
2019-02-27T07:33:46.750Z,5.80
2019-02-27T07:36:15.846Z,6.00
2019-02-27T08:21:00.853Z,15.60
2019-02-27T08:26:41.603Z,16.60
2019-02-27T08:29:15.553Z,16.90
2019-02-27T09:42:53.075Z,20.90
2019-02-27T09:45:34.925Z,20.90
2019-02-27T09:48:08.967Z,20.40
2019-02-27T09:51:09.794Z,19.30
2019-02-27T09:53:45.490Z,19.50
2019-02-27T09:57:09.597Z,19.90
2019-02-27T10:02:53.266Z,21.50
2019-02-27T10:12:27.059Z,21.00
2019-02-27T10:15:22.476Z,21.20
2019-02-27T15:47:43.219Z,19.70
2019-02-27T15:53:25.241Z,19.60
2019-02-27T15:59:11.102Z,19.40
2019-02-27T16:14:06.089Z,18.80
2019-02-27T16:19:42.102Z,18.80
2019-02-27T16:22:33.015Z,18.70
2019-02-27T17:07:41.843Z,17.10
2019-02-27T17:11:51.590Z,17.00
2019-02-27T17:13:07.353Z,16.90
2019-02-27T17:18:37.434Z,16.70
2019-02-27T17:21:09.602Z,16.60
2019-02-27T17:23:43.799Z,16.50
2019-02-27T17:26:11.545Z,16.40
2019-02-27T17:28:41.713Z,16.30
2019-02-27T17:31:12.254Z,16.20
2019-02-27T17:33:42.347Z,16.10
2019-02-27T17:36:11.934Z,16.00
2019-02-27T17:38:45.030Z,15.90
2019-02-27T19:48:51.977Z,12.20
2019-02-27T19:51:23.433Z,12.20
2019-02-27T19:53:54.042Z,12.10
2019-02-27T19:56:23.922Z,12.10
2019-02-27T19:58:53.436Z,12.10
2019-02-27T20:01:23.213Z,12.00
2019-02-27T20:03:52.770Z,12.00
2019-02-27T20:06:27.991Z,12.00
2019-02-27T20:08:55.922Z,12.00
2019-02-27T20:11:26.452Z,12.00
2019-02-27T20:14:01.953Z,11.90
2019-02-27T20:16:31.294Z,11.90
2019-02-27T20:19:02.513Z,11.90
2019-02-27T20:21:33.991Z,11.80
2019-02-27T20:24:03.636Z,11.80
2019-02-27T20:26:33.294Z,11.70
2019-02-27T20:29:04.237Z,11.70
2019-02-27T20:31:34.242Z,11.70
2019-02-27T20:34:03.815Z,11.60
2019-02-27T20:36:33.457Z,11.60
2019-02-27T20:39:04.672Z,11.60
2019-02-27T20:41:34.229Z,11.50
2019-02-27T20:44:04.395Z,11.50
2019-02-27T20:46:34.426Z,11.50
2019-02-27T20:49:04.063Z,11.50
2019-02-27T20:51:33.731Z,11.40
2019-02-27T20:54:03.319Z,11.40
2019-02-27T20:56:35.903Z,11.30
2019-02-27T20:59:05.925Z,11.30
2019-02-27T21:01:35.643Z,11.20
2019-02-27T21:04:05.252Z,11.20
2019-02-27T21:06:34.933Z,11.10
2019-02-27T21:09:10.863Z,11.10
2019-02-27T21:11:36.943Z,11.10
2019-02-27T21:14:06.604Z,11.00
2019-02-27T21:16:40.149Z,11.00
2019-02-27T21:19:09.056Z,11.00
2019-02-27T21:21:38.646Z,10.90
2019-02-27T21:24:08.167Z,10.90
2019-02-27T21:26:37.695Z,10.80
2019-02-27T21:29:09.863Z,10.80
2019-02-27T21:31:39.643Z,10.80
2019-02-27T21:34:09.191Z,10.70
2019-02-27T21:36:38.719Z,10.70
2019-02-27T21:39:08.329Z,10.70
2019-02-27T21:41:37.875Z,10.60
2019-02-27T23:27:48.414Z,9.70
